Aviation Digital Data Service (ADDS)

Output produced by TAFs form (0923 UTC 31 July 2014)
found at http://aviationweather.gov/adds/tafs/
 
KFMN 310534Z 3106/0106 36005KT P6SM SCT100 
     FM310800 06010KT P6SM VCSH BKN080 
     FM311100 09010KT P6SM BKN080 
     FM312000 27015G25KT P6SM VCSH BKN080 
     FM312200 27015G25KT P6SM VCTS BKN080CB 
     FM010100 33015G25KT P6SM VCSH OVC080